createdAt,value
2022-09-28T00:03:18.766Z,16.79
2022-09-28T00:08:18.240Z,16.80
2022-09-28T00:13:19.910Z,16.54
2022-09-28T00:18:21.394Z,16.67
2022-09-28T00:23:22.565Z,16.66
2022-09-28T00:28:23.663Z,16.75
2022-09-28T00:33:26.869Z,16.74
2022-09-28T00:38:30.864Z,16.77
2022-09-28T00:43:31.499Z,16.69
2022-09-28T00:48:33.828Z,16.88
2022-09-28T00:53:35.503Z,16.95
2022-09-28T00:58:53.154Z,17.11
2022-09-28T01:03:55.413Z,16.96
2022-09-28T01:08:58.658Z,17.01
2022-09-28T01:13:58.165Z,17.03
2022-09-28T01:19:38.645Z,16.96
2022-09-28T01:24:57.108Z,16.93
2022-09-28T01:30:06.654Z,16.66
2022-09-28T01:35:16.738Z,16.54
2022-09-28T01:40:16.996Z,16.31
2022-09-28T01:45:24.643Z,16.42
2022-09-28T01:50:28.268Z,16.40
2022-09-28T01:55:29.875Z,16.30
2022-09-28T02:00:29.850Z,16.28
2022-09-28T02:05:41.235Z,16.26
2022-09-28T02:11:12.657Z,16.04
2022-09-28T02:16:37.171Z,15.99
2022-09-28T02:21:47.554Z,15.97
2022-09-28T02:26:47.316Z,15.79
2022-09-28T02:31:46.349Z,15.33
2022-09-28T02:36:46.263Z,15.51
2022-09-28T02:42:24.040Z,15.54
2022-09-28T02:48:01.109Z,15.54
2022-09-28T02:53:36.785Z,15.65
2022-09-28T02:58:44.325Z,15.56
2022-09-28T03:03:58.344Z,15.48
2022-09-28T03:09:05.600Z,15.67
2022-09-28T03:14:09.247Z,15.71
2022-09-28T03:19:18.606Z,15.79
2022-09-28T03:24:17.165Z,15.68
2022-09-28T03:29:15.932Z,15.73
2022-09-28T03:34:17.971Z,15.69
2022-09-28T03:39:17.120Z,15.64
2022-09-28T03:44:15.230Z,15.55
2022-09-28T03:49:20.194Z,15.72
2022-09-28T03:54:21.308Z,15.71
2022-09-28T03:59:23.738Z,15.49
2022-09-28T04:04:22.237Z,15.53
2022-09-28T04:09:24.201Z,15.33
2022-09-28T04:14:26.065Z,15.51
2022-09-28T04:19:27.671Z,15.61
2022-09-28T04:24:43.669Z,15.59
2022-09-28T04:29:41.893Z,15.46
2022-09-28T04:34:44.300Z,15.56
2022-09-28T04:39:48.579Z,15.57
2022-09-28T04:44:56.010Z,15.56
2022-09-28T04:49:53.768Z,15.66
2022-09-28T04:54:57.896Z,15.59
2022-09-28T04:59:58.395Z,15.52
2022-09-28T05:05:00.267Z,15.69
2022-09-28T05:10:22.228Z,15.84
2022-09-28T05:15:26.353Z,15.84
2022-09-28T05:20:24.946Z,15.92
2022-09-28T05:25:24.853Z,16.09
2022-09-28T05:30:38.531Z,16.33
2022-09-28T05:36:01.305Z,16.41
2022-09-28T05:41:07.327Z,16.31
2022-09-28T05:46:10.269Z,16.56
2022-09-28T05:51:12.270Z,16.81
2022-09-28T05:56:13.373Z,16.79
2022-09-28T06:01:15.541Z,17.04
2022-09-28T06:06:16.233Z,17.26
2022-09-28T06:11:28.045Z,17.39
2022-09-28T06:16:29.358Z,17.59
2022-09-28T06:21:27.356Z,17.51
2022-09-28T06:26:25.360Z,17.67
2022-09-28T06:31:33.379Z,17.83
2022-09-28T06:36:43.446Z,18.04
2022-09-28T06:41:45.022Z,18.17
2022-09-28T06:47:00.626Z,18.21
2022-09-28T06:52:22.499Z,18.53
2022-09-28T06:57:44.305Z,18.58
2022-09-28T07:02:44.647Z,18.81
2022-09-28T07:08:14.893Z,18.92
2022-09-28T07:13:49.975Z,19.02
2022-09-28T07:18:58.087Z,19.20
2022-09-28T07:23:56.697Z,19.44
2022-09-28T07:29:07.939Z,19.45
2022-09-28T07:34:14.391Z,19.62
2022-09-28T07:40:01.247Z,19.81
2022-09-28T07:45:04.302Z,19.81
2022-09-28T07:50:06.332Z,19.85
2022-09-28T07:55:17.787Z,19.96
2022-09-28T08:00:37.790Z,20.06
2022-09-28T08:05:42.529Z,20.28
2022-09-28T08:10:47.146Z,20.24
2022-09-28T08:16:13.055Z,20.46
2022-09-28T08:21:46.126Z,20.54
2022-09-28T08:26:44.754Z,20.76
2022-09-28T08:31:48.568Z,20.85
2022-09-28T08:37:12.930Z,21.11
2022-09-28T08:42:56.366Z,21.33
2022-09-28T08:48:39.184Z,21.62
2022-09-28T08:54:26.643Z,21.83
2022-09-28T08:59:54.796Z,21.94
2022-09-28T09:05:15.138Z,22.07
2022-09-28T09:10:59.372Z,22.30
2022-09-28T09:16:28.332Z,22.39
2022-09-28T09:22:01.961Z,22.53
2022-09-28T09:27:15.031Z,22.61
2022-09-28T09:32:25.537Z,22.74
2022-09-28T09:37:27.734Z,22.80
2022-09-28T09:43:29.356Z,22.99
2022-09-28T09:49:00.247Z,23.03
2022-09-28T09:54:13.268Z,22.96
2022-09-28T09:59:32.314Z,23.17
2022-09-28T10:04:38.064Z,23.25
2022-09-28T10:09:46.133Z,23.30
2022-09-28T10:14:59.745Z,23.42
2022-09-28T10:20:00.543Z,23.65
2022-09-28T10:25:01.731Z,23.68
2022-09-28T10:30:10.983Z,23.89
2022-09-28T10:35:22.901Z,23.92
2022-09-28T10:40:47.276Z,23.94
2022-09-28T10:46:04.918Z,23.81
2022-09-28T10:51:07.192Z,23.95
2022-09-28T10:56:28.579Z,24.01
2022-09-28T11:01:35.786Z,24.23
2022-09-28T11:06:42.070Z,24.31
2022-09-28T11:11:44.209Z,24.39
2022-09-28T11:16:45.374Z,24.33
2022-09-28T11:21:46.295Z,24.33
2022-09-28T11:26:50.192Z,24.72
2022-09-28T11:31:52.822Z,24.62
2022-09-28T11:37:27.568Z,24.89
2022-09-28T11:42:45.924Z,24.91
2022-09-28T11:47:55.419Z,24.89
2022-09-28T11:53:06.380Z,24.87
2022-09-28T11:58:17.284Z,24.81
2022-09-28T12:03:29.860Z,25.03
2022-09-28T12:08:39.838Z,25.10
2022-09-28T12:14:10.659Z,25.17
2022-09-28T12:19:17.923Z,25.44
2022-09-28T12:24:34.904Z,25.70
2022-09-28T12:29:41.697Z,25.67
2022-09-28T12:34:43.355Z,25.35
2022-09-28T12:39:57.403Z,25.55
2022-09-28T12:45:05.898Z,25.63
2022-09-28T12:50:38.585Z,25.49
2022-09-28T12:56:06.788Z,25.81
2022-09-28T13:01:38.575Z,25.92
2022-09-28T13:07:14.524Z,25.89
2022-09-28T13:12:33.681Z,26.01
2022-09-28T13:17:53.972Z,25.99
2022-09-28T13:22:57.402Z,26.29
2022-09-28T13:28:09.241Z,26.19
2022-09-28T13:33:12.997Z,26.09
2022-09-28T13:38:20.967Z,26.35
2022-09-28T13:43:32.719Z,26.40
2022-09-28T13:48:59.302Z,26.78
2022-09-28T13:54:45.869Z,27.54
2022-09-28T14:00:18.526Z,27.74
2022-09-28T14:05:28.115Z,27.64
2022-09-28T14:10:54.929Z,27.23
2022-09-28T14:15:52.814Z,28.18
2022-09-28T14:21:14.457Z,28.43
2022-09-28T14:26:25.730Z,29.29
2022-09-28T14:31:28.429Z,29.09
2022-09-28T14:36:49.704Z,28.30
2022-09-28T14:41:47.228Z,26.99
2022-09-28T14:46:50.796Z,26.43
2022-09-28T14:51:56.247Z,26.42
2022-09-28T14:56:57.373Z,26.15
2022-09-28T15:02:05.943Z,25.68
2022-09-28T15:07:03.617Z,25.41
2022-09-28T15:12:02.788Z,25.14
2022-09-28T15:17:09.655Z,24.84
2022-09-28T15:22:18.891Z,24.73
2022-09-28T15:27:21.037Z,24.68
2022-09-28T15:32:26.241Z,24.62
2022-09-28T15:37:26.571Z,24.69
2022-09-28T15:42:23.937Z,24.29
2022-09-28T15:47:33.465Z,24.19
2022-09-28T15:52:40.948Z,24.33
2022-09-28T15:57:42.599Z,23.96
2022-09-28T16:03:08.045Z,23.75
2022-09-28T16:08:06.307Z,23.65
2022-09-28T16:13:24.127Z,23.66
2022-09-28T16:18:23.680Z,23.38
2022-09-28T16:23:33.380Z,23.50
2022-09-28T16:28:34.699Z,23.48
2022-09-28T16:34:10.729Z,23.27
2022-09-28T16:39:14.695Z,23.21
2022-09-28T16:44:19.990Z,23.15
2022-09-28T16:49:25.708Z,23.37
2022-09-28T16:54:49.539Z,23.21
2022-09-28T16:59:54.197Z,23.16
2022-09-28T17:04:52.308Z,22.94
2022-09-28T17:09:52.945Z,22.94
2022-09-28T17:14:52.583Z,22.91
2022-09-28T17:19:50.029Z,22.92
2022-09-28T17:24:47.668Z,22.91
2022-09-28T17:29:46.150Z,22.82
2022-09-28T17:34:51.524Z,22.86
2022-09-28T17:39:53.994Z,22.83
2022-09-28T17:44:52.148Z,22.80
2022-09-28T17:49:50.890Z,22.82
2022-09-28T17:54:48.723Z,22.72
2022-09-28T17:59:47.038Z,22.74
2022-09-28T18:04:52.290Z,22.72
2022-09-28T18:09:58.019Z,22.74
2022-09-28T18:14:55.384Z,22.58
2022-09-28T18:19:53.454Z,22.65
2022-09-28T18:24:51.364Z,22.55
2022-09-28T18:29:49.716Z,22.49
2022-09-28T18:34:47.987Z,22.28
2022-09-28T18:39:48.598Z,22.31
2022-09-28T18:44:46.647Z,22.23
2022-09-28T18:49:46.808Z,22.20
2022-09-28T18:54:47.055Z,22.17
2022-09-28T18:59:48.498Z,21.90
2022-09-28T19:04:46.314Z,21.92
2022-09-28T19:09:44.471Z,21.54
2022-09-28T19:14:42.098Z,21.41
2022-09-28T19:19:39.805Z,21.26
2022-09-28T19:24:37.722Z,21.19
2022-09-28T19:29:35.366Z,21.26
2022-09-28T19:34:32.691Z,21.03
2022-09-28T19:39:41.382Z,20.97
2022-09-28T19:44:40.108Z,21.06
2022-09-28T19:49:40.166Z,21.14
2022-09-28T19:54:39.968Z,21.27
2022-09-28T19:59:38.668Z,21.22
2022-09-28T20:04:37.108Z,21.32
2022-09-28T20:09:34.839Z,21.35
2022-09-28T20:14:37.723Z,21.26
2022-09-28T20:19:40.939Z,20.99
2022-09-28T20:24:44.627Z,20.77
2022-09-28T20:29:46.441Z,20.44
2022-09-28T20:34:46.510Z,20.45
2022-09-28T20:39:45.263Z,20.53
2022-09-28T20:44:43.927Z,20.34
2022-09-28T20:49:44.559Z,20.90
2022-09-28T20:54:43.560Z,21.03
2022-09-28T20:59:43.022Z,21.10
2022-09-28T21:04:41.484Z,20.89
2022-09-28T21:09:39.587Z,20.98
2022-09-28T21:14:39.948Z,20.92
2022-09-28T21:19:37.310Z,20.82
2022-09-28T21:24:34.616Z,20.94
2022-09-28T21:29:36.442Z,21.02
2022-09-28T21:34:36.200Z,20.94
2022-09-28T21:39:35.208Z,20.78
2022-09-28T21:44:36.792Z,20.70
2022-09-28T21:49:34.289Z,20.88
2022-09-28T21:54:32.422Z,20.85
2022-09-28T21:59:30.515Z,20.73
2022-09-28T22:04:29.539Z,20.64
2022-09-28T22:09:27.724Z,20.49
2022-09-28T22:14:27.401Z,19.80
2022-09-28T22:19:25.495Z,19.96
2022-09-28T22:24:24.530Z,20.26
2022-09-28T22:29:26.453Z,19.94
2022-09-28T22:34:25.797Z,20.18
2022-09-28T22:39:24.146Z,19.85
2022-09-28T22:44:23.063Z,19.69
2022-09-28T22:49:21.683Z,19.60
2022-09-28T22:54:20.509Z,19.29
2022-09-28T22:59:19.098Z,19.37
2022-09-28T23:04:17.406Z,19.64
2022-09-28T23:09:18.945Z,19.30
2022-09-28T23:14:17.158Z,19.70
2022-09-28T23:19:16.411Z,19.52
2022-09-28T23:24:14.809Z,19.42
2022-09-28T23:29:13.977Z,19.37
2022-09-28T23:34:12.452Z,19.51
2022-09-28T23:39:13.436Z,19.50
2022-09-28T23:44:14.585Z,19.23
2022-09-28T23:49:13.747Z,19.19
2022-09-28T23:54:16.146Z,19.55
2022-09-28T23:59:15.482Z,19.35
